createdAt,value
2022-10-22T00:00:02.663Z,0.646
2022-10-22T00:05:02.629Z,0.612
2022-10-22T00:10:02.605Z,0.611
2022-10-22T00:15:02.728Z,0.598
2022-10-22T00:20:02.742Z,0.627
2022-10-22T00:25:02.665Z,0.786
2022-10-22T00:30:02.652Z,0.802
2022-10-22T00:35:02.686Z,0.804
2022-10-22T00:40:02.604Z,0.749
2022-10-22T00:45:02.776Z,0.614
2022-10-22T00:55:02.643Z,0.634
2022-10-22T01:00:02.675Z,0.62
2022-10-22T01:05:02.638Z,0.598
2022-10-22T01:10:02.722Z,0.614
2022-10-22T01:15:02.725Z,0.596
2022-10-22T01:20:02.762Z,0.584
2022-10-22T01:25:02.646Z,0.591
2022-10-22T01:30:02.632Z,0.603
2022-10-22T01:35:02.609Z,0.394
2022-10-22T01:40:02.709Z,0.533
2022-10-22T01:45:02.690Z,0.554
2022-10-22T01:50:02.769Z,0.43
2022-10-22T01:55:02.675Z,0.5640000000000001
2022-10-22T02:00:02.679Z,0.557
2022-10-22T02:05:02.712Z,0.009000000000000001
2022-10-22T02:10:02.641Z,0
2022-10-22T02:15:02.712Z,0.002
2022-10-22T02:20:02.770Z,0.004
2022-10-22T02:25:02.669Z,0
2022-10-22T02:30:02.853Z,0.003
2022-10-22T02:35:02.724Z,0.003
2022-10-22T02:40:02.689Z,0.003
2022-10-22T02:45:02.697Z,0.002
2022-10-22T02:50:04.504Z,0.004
2022-10-22T02:55:02.939Z,0
2022-10-22T03:00:02.761Z,0.002
2022-10-22T03:05:02.841Z,0.002
2022-10-22T03:10:02.705Z,0
2022-10-22T03:15:02.791Z,0.001
2022-10-22T03:20:02.763Z,0
2022-10-22T03:25:02.940Z,0
2022-10-22T03:30:03.045Z,0.021
2022-10-22T03:35:02.736Z,0.031
2022-10-22T03:40:02.861Z,0.018000000000000002
2022-10-22T03:45:02.777Z,0.02
2022-10-22T03:50:02.765Z,0
2022-10-22T03:55:02.829Z,0.001
2022-10-22T04:00:02.937Z,0
2022-10-22T04:05:03.015Z,0.007
2022-10-22T04:10:02.814Z,0
2022-10-22T04:15:02.737Z,0.16
2022-10-22T04:20:02.768Z,0.116
2022-10-22T04:25:02.772Z,0
2022-10-22T04:30:02.817Z,0
2022-10-22T04:35:02.938Z,0
2022-10-22T04:40:02.769Z,0
2022-10-22T04:45:02.949Z,0.127
2022-10-22T04:50:02.783Z,0.167
2022-10-22T04:55:02.816Z,0.066
2022-10-22T05:00:02.846Z,0
2022-10-22T05:05:02.896Z,0
2022-10-22T05:10:03.026Z,0
2022-10-22T05:15:02.817Z,0.066
2022-10-22T05:20:02.825Z,0.085
2022-10-22T05:25:02.941Z,0.042
2022-10-22T05:30:02.811Z,0
2022-10-22T05:35:02.810Z,0
2022-10-22T05:40:12.295Z,0
2022-10-22T05:45:03.010Z,0.10200000000000001
2022-10-22T05:50:02.805Z,0.082
2022-10-22T05:55:02.844Z,0.042
2022-10-22T06:00:02.847Z,0
2022-10-22T06:05:02.827Z,0
2022-10-22T06:10:03.701Z,0.006
2022-10-22T06:15:02.915Z,0.145
2022-10-22T06:25:02.875Z,0.081
2022-10-22T06:30:02.856Z,0.02
2022-10-22T06:35:02.942Z,0
2022-10-22T06:40:02.909Z,0
2022-10-22T06:45:02.967Z,0
2022-10-22T06:50:02.971Z,0
2022-10-22T06:55:02.960Z,0.032
2022-10-22T07:00:03.099Z,0.036000000000000004
2022-10-22T07:05:02.879Z,0.02
2022-10-22T07:10:02.902Z,0.014
2022-10-22T07:15:02.969Z,0
2022-10-22T07:20:01.392Z,4.741
2022-10-22T07:25:03.891Z,35.685
2022-10-22T07:30:01.439Z,46.208
2022-10-22T07:35:01.389Z,60.182
2022-10-22T07:40:02.889Z,107.104
2022-10-22T07:45:01.620Z,121.084
2022-10-22T07:50:01.565Z,147.347
2022-10-22T07:55:01.413Z,181.41
2022-10-22T08:00:01.389Z,171.345
2022-10-22T08:05:01.480Z,140.76500000000001
2022-10-22T08:10:01.407Z,134.779
2022-10-22T08:15:01.382Z,85.10000000000001
2022-10-22T08:20:01.590Z,93.82900000000001
2022-10-22T08:25:01.603Z,125.141
2022-10-22T08:30:01.413Z,138.243
2022-10-22T08:35:01.418Z,127.227
2022-10-22T08:40:01.394Z,117.285
2022-10-22T08:45:01.427Z,91.017
2022-10-22T08:50:01.429Z,84.816
2022-10-22T08:55:01.495Z,140.992
2022-10-22T09:00:01.607Z,193.428
2022-10-22T09:05:01.637Z,207.948
2022-10-22T09:10:01.479Z,317.617
2022-10-22T09:15:01.538Z,423.329
2022-10-22T09:20:01.460Z,521.872
2022-10-22T09:25:01.580Z,609.582
2022-10-22T09:30:01.457Z,632.855
2022-10-22T09:35:01.626Z,610.004
2022-10-22T09:40:01.518Z,711.248
2022-10-22T09:45:01.542Z,682.267
2022-10-22T09:50:01.481Z,618.84
2022-10-22T09:55:01.491Z,611.51
2022-10-22T10:00:01.608Z,672.412
2022-10-22T10:05:01.757Z,517.179
2022-10-22T10:10:01.650Z,421.178
2022-10-22T10:15:01.544Z,361.00600000000003
2022-10-22T10:20:03.027Z,372.118
2022-10-22T10:25:01.478Z,439.603
2022-10-22T10:30:01.489Z,414.726
2022-10-22T10:35:01.507Z,471.6
2022-10-22T10:40:01.664Z,553.469
2022-10-22T10:45:01.672Z,585.349
2022-10-22T10:50:01.515Z,635.97
2022-10-22T10:55:01.548Z,700.198
2022-10-22T11:00:01.531Z,626.495
2022-10-22T11:05:01.542Z,655.547
2022-10-22T11:10:01.639Z,651.888
2022-10-22T11:15:02.225Z,876.426
2022-10-22T11:20:01.712Z,915.976
2022-10-22T11:25:01.570Z,715.169
2022-10-22T11:30:01.534Z,400.51800000000003
2022-10-22T11:35:01.584Z,331.22700000000003
2022-10-22T11:40:01.610Z,374.906
2022-10-22T11:45:01.579Z,403.036
2022-10-22T11:50:01.703Z,343.008
2022-10-22T11:55:01.757Z,306.204
2022-10-22T12:00:01.577Z,251.096
2022-10-22T12:05:01.568Z,160.218
2022-10-22T12:10:01.588Z,110.538
2022-10-22T12:15:01.677Z,100.855
2022-10-22T12:20:02.139Z,101.547
2022-10-22T12:25:01.701Z,81.111
2022-10-22T12:30:01.768Z,84.763
2022-10-22T12:35:01.604Z,110.684
2022-10-22T12:40:01.650Z,178.916
2022-10-22T12:45:01.700Z,222.102
2022-10-22T12:50:01.905Z,212.086
2022-10-22T12:55:01.710Z,238.816
2022-10-22T13:00:01.954Z,223.744
2022-10-22T13:05:01.650Z,198.168
2022-10-22T13:10:01.672Z,199.69400000000002
2022-10-22T13:15:01.682Z,218.506
2022-10-22T13:20:01.718Z,274.043
2022-10-22T13:25:01.668Z,446.06
2022-10-22T13:30:01.759Z,469.14300000000003
2022-10-22T13:35:01.818Z,445.91
2022-10-22T13:40:01.700Z,266.121
2022-10-22T13:45:01.840Z,219.883
2022-10-22T13:50:01.756Z,108.891
2022-10-22T13:55:01.682Z,117.092
2022-10-22T14:00:01.875Z,195.162
2022-10-22T14:05:01.817Z,80.206
2022-10-22T14:10:01.903Z,57.755
2022-10-22T14:15:01.873Z,61.684000000000005
2022-10-22T14:20:01.865Z,133.246
2022-10-22T14:25:01.749Z,98.886
2022-10-22T14:30:01.735Z,122.262
2022-10-22T14:35:01.750Z,134.635
2022-10-22T14:40:01.988Z,130.083
2022-10-22T14:45:01.889Z,213.535
2022-10-22T14:50:01.717Z,192.464
2022-10-22T14:55:01.753Z,270.395
2022-10-22T15:00:01.712Z,437.78000000000003
2022-10-22T15:05:01.820Z,330.78700000000003
2022-10-22T15:10:01.731Z,201.805
2022-10-22T15:15:01.866Z,271.41
2022-10-22T15:20:01.951Z,183.365
2022-10-22T15:25:01.756Z,133.091
2022-10-22T15:35:01.756Z,60.006
2022-10-22T15:40:01.876Z,24.178
2022-10-22T15:45:01.840Z,1.854
2022-10-22T15:50:01.918Z,0.076
2022-10-22T15:55:02.031Z,0
2022-10-22T16:00:01.950Z,0.145
2022-10-22T16:05:01.790Z,0.128
2022-10-22T16:10:01.845Z,0.126
2022-10-22T16:15:01.843Z,0.07200000000000001
2022-10-22T16:20:01.954Z,0
2022-10-22T16:25:01.951Z,0.066
2022-10-22T16:30:01.947Z,0.107
2022-10-22T16:35:01.830Z,0.127
2022-10-22T16:40:03.023Z,0.08700000000000001
2022-10-22T16:45:01.902Z,0
2022-10-22T16:50:01.867Z,0.036000000000000004
2022-10-22T16:55:01.871Z,0.015
2022-10-22T17:00:02.049Z,0.019
2022-10-22T17:05:01.984Z,0.037
2022-10-22T17:10:01.895Z,0.10400000000000001
2022-10-22T17:15:02.001Z,0.233
2022-10-22T17:20:01.857Z,0.23500000000000001
2022-10-22T17:25:01.874Z,0.028
2022-10-22T17:30:02.183Z,0.055
2022-10-22T17:35:01.995Z,0.123
2022-10-22T17:40:02.075Z,0.062
2022-10-22T17:45:01.935Z,0.036000000000000004
2022-10-22T17:50:01.933Z,0.053
2022-10-22T17:55:01.941Z,0.083
2022-10-22T18:00:01.913Z,0.069
2022-10-22T18:05:01.959Z,0.098
2022-10-22T18:10:02.046Z,0.109
2022-10-22T18:15:01.917Z,0.049
2022-10-22T18:20:01.925Z,0.023
2022-10-22T18:25:01.963Z,0.032
2022-10-22T18:30:01.967Z,0.074
2022-10-22T18:35:01.953Z,0.077
2022-10-22T18:40:02.111Z,0.088
2022-10-22T18:45:02.007Z,0.11900000000000001
2022-10-22T18:50:02.033Z,0.157
2022-10-22T18:55:01.942Z,0.15
2022-10-22T19:00:01.980Z,0.107
2022-10-22T19:05:02.059Z,0.098
2022-10-22T19:10:02.254Z,0.027
2022-10-22T19:15:01.955Z,0.032
2022-10-22T19:20:06.621Z,0.008
2022-10-22T19:25:08.261Z,0.026000000000000002
2022-10-22T19:30:06.748Z,0.127
2022-10-22T19:35:06.761Z,0.036000000000000004
2022-10-22T19:40:06.591Z,0.10300000000000001
2022-10-22T19:45:06.689Z,0.083
2022-10-22T19:50:06.624Z,0.12
2022-10-22T19:55:06.620Z,0.125
2022-10-22T20:00:06.813Z,0.026000000000000002
2022-10-22T20:05:06.816Z,0.048
2022-10-22T20:10:06.666Z,0.149
2022-10-22T20:15:06.703Z,0.162
2022-10-22T20:20:06.809Z,0.164
2022-10-22T20:25:06.657Z,0.031
2022-10-22T20:30:06.803Z,0.062
2022-10-22T20:35:06.852Z,0.126
2022-10-22T20:40:06.709Z,0.125
2022-10-22T20:45:06.715Z,0.125
2022-10-22T20:50:06.726Z,0.016
2022-10-22T20:55:06.795Z,0.09
2022-10-22T21:00:07.681Z,0.17400000000000002
2022-10-22T21:05:06.854Z,0.169
2022-10-22T21:10:06.674Z,0.13
2022-10-22T21:15:08.891Z,0.005
2022-10-22T21:20:06.738Z,0.061
2022-10-22T21:25:06.677Z,0.11
2022-10-22T21:30:06.846Z,0.11
2022-10-22T21:35:06.857Z,0.107
2022-10-22T21:40:06.967Z,0.145
2022-10-22T21:45:10.462Z,0.17
2022-10-22T21:50:06.759Z,0.17200000000000001
2022-10-22T21:55:06.826Z,0.145
2022-10-22T22:00:06.768Z,0.121
2022-10-22T22:05:06.868Z,0.113
2022-10-22T22:10:06.925Z,0.113
2022-10-22T22:15:06.765Z,0.114
2022-10-22T22:20:06.747Z,0.115
2022-10-22T22:25:06.785Z,0.165
2022-10-22T22:30:06.769Z,0.17400000000000002
2022-10-22T22:35:06.904Z,0.171
2022-10-22T22:40:06.990Z,0.132
2022-10-22T22:45:06.817Z,0.126
2022-10-22T22:50:06.882Z,0.123
2022-10-22T22:55:06.824Z,0.124
2022-10-22T23:00:06.787Z,0.11900000000000001
2022-10-22T23:05:06.870Z,0.13
2022-10-22T23:10:06.950Z,0.167
2022-10-22T23:15:06.839Z,0.163
2022-10-22T23:20:06.793Z,0.16
2022-10-22T23:25:06.787Z,0.112
2022-10-22T23:30:06.791Z,0.114
2022-10-22T23:35:06.868Z,0.123
2022-10-22T23:40:07.040Z,0.124
2022-10-22T23:45:06.810Z,0.126
2022-10-22T23:50:06.859Z,0.14
2022-10-22T23:55:06.849Z,0.17400000000000002
